Time;durP1;ratioP1;P1;durP2;ratioP2;P2;SDS_P1;SDS_P2;PMS_P1;PMS_P2;Temp;Humidity;BMP_temperature;BMP_pressure;BME280_temperature;BME280_humidity;BME280_pressure;Samples;Min_cycle;Max_cycle;Signal;HPM_P1;HPM_P2
2022/10/23 00:01:00;;;;;;;;;5.00;5.00;;;;;17.95;68.99;100653.28;5076401;28;45478;-71
2022/10/23 00:03:26;;;;;;;;;11.67;10.67;;;;;17.88;68.96;100636.69;5075061;27;46282;-71
2022/10/23 00:05:51;;;;;;;;;11.33;7.67;;;;;17.94;69.04;100633.00;5076184;27;45559;-71
2022/10/23 00:08:17;;;;;;;;;8.33;6.00;;;;;17.92;68.96;100627.75;5076049;28;45521;-69
2022/10/23 00:10:43;;;;;;;;;4.67;4.33;;;;;17.97;69.15;100622.31;5072858;28;45522;-69
2022/10/23 00:13:09;;;;;;;;;8.00;6.33;;;;;17.99;69.12;100623.13;5071832;28;45897;-70
2022/10/23 00:15:36;;;;;;;;;3.67;3.67;;;;;17.99;68.90;100613.38;5070660;28;45588;-69
2022/10/23 00:18:03;;;;;;;;;6.00;4.00;;;;;18.05;68.90;100612.31;5049359;28;45660;-69
2022/10/23 00:20:29;;;;;;;;;5.67;3.67;;;;;17.99;68.80;100615.19;5051362;28;45733;-71
2022/10/23 00:22:55;;;;;;;;;4.00;4.00;;;;;18.01;68.55;100616.00;5054351;28;47668;-69
2022/10/23 00:25:21;;;;;;;;;3.00;3.00;;;;;17.92;68.89;100597.72;5052548;28;45504;-70
2022/10/23 00:27:46;;;;;;;;;3.33;3.33;;;;;17.93;69.02;100595.03;5054057;28;45530;-71
2022/10/23 00:30:12;;;;;;;;;3.33;3.33;;;;;17.88;68.89;100591.66;5076375;28;45492;-70
2022/10/23 00:32:38;;;;;;;;;4.00;4.00;;;;;17.97;69.17;100599.31;5074934;28;46441;-70
2022/10/23 00:35:04;;;;;;;;;5.00;4.00;;;;;17.99;69.17;100609.88;5069800;28;45471;-68
2022/10/23 00:37:31;;;;;;;;;5.67;3.67;;;;;17.97;69.24;100598.47;5074545;28;45584;-69
2022/10/23 00:39:57;;;;;;;;;5.33;4.00;;;;;17.97;68.96;100609.91;5043274;28;45642;-70
2022/10/23 00:42:23;;;;;;;;;4.33;4.00;;;;;17.91;69.03;100602.16;5070328;28;45406;-71
2022/10/23 00:44:48;;;;;;;;;5.00;4.00;;;;;17.85;69.33;100585.59;5066608;28;45780;-73
2022/10/23 00:47:14;;;;;;;;;7.00;5.00;;;;;17.83;69.25;100582.13;5073646;28;45318;-71
2022/10/23 00:49:40;;;;;;;;;5.33;4.33;;;;;17.86;69.30;100572.28;5073513;27;45790;-70
2022/10/23 00:52:08;;;;;;;;;3.33;3.33;;;;;17.90;69.60;100573.06;5058885;28;45534;-67
2022/10/23 00:54:40;;;;;;;;;2.33;2.33;;;;;17.83;69.26;100563.56;5065583;28;45513;-68
2022/10/23 00:57:12;;;;;;;;;4.67;4.00;;;;;17.92;69.27;100577.41;5077211;28;45386;-70
2022/10/23 00:59:38;;;;;;;;;5.33;4.00;;;;;17.85;69.55;100564.41;5076487;28;45428;-71
2022/10/23 01:02:04;;;;;;;;;3.33;3.33;;;;;17.84;69.34;100563.50;5072757;27;45502;-72
2022/10/23 01:04:31;;;;;;;;;5.00;5.00;;;;;17.75;69.66;100542.59;5054489;28;45520;-70
2022/10/23 01:07:33;;;;;;;;;6.00;5.00;;;;;17.90;69.34;100555.38;5073299;28;45457;-71
2022/10/23 01:10:08;;;;;;;;;6.33;4.67;;;;;17.95;69.15;100540.19;5062466;28;45520;-71
2022/10/23 01:12:47;;;;;;;;;4.00;4.00;;;;;17.99;68.89;100538.34;5055819;28;45417;-71
2022/10/23 01:15:29;;;;;;;;;4.00;4.00;;;;;17.95;68.88;100539.34;5077226;28;45564;-72
2022/10/23 01:18:22;;;;;;;;;5.00;4.33;;;;;17.91;69.11;100537.69;5058841;28;45421;-72
2022/10/23 01:20:51;;;;;;;;;5.33;2.00;;;;;17.91;68.90;100538.56;5077426;28;45390;-71
2022/10/23 01:23:41;;;;;;;;;4.00;4.00;;;;;17.86;69.09;100532.53;5077426;28;46148;-71
2022/10/23 01:26:17;;;;;;;;;5.00;4.00;;;;;17.84;69.12;100526.41;5054606;28;45879;-71
2022/10/23 01:28:49;;;;;;;;;4.33;4.33;;;;;17.82;69.03;100520.31;5054291;28;45489;-71
2022/10/23 01:31:22;;;;;;;;;3.00;3.00;;;;;17.80;68.76;100512.41;5060194;28;45738;-71
2022/10/23 01:33:55;;;;;;;;;3.67;3.33;;;;;17.83;68.58;100494.69;5072141;28;47062;-70
2022/10/23 01:36:25;;;;;;;;;4.00;3.00;;;;;17.77;68.43;100488.66;5072202;28;45406;-69
2022/10/23 01:39:14;;;;;;;;;6.00;4.00;;;;;17.80;68.55;100491.22;5052014;28;45404;-71
2022/10/23 01:41:46;;;;;;;;;2.67;2.67;;;;;17.80;68.54;100508.88;5069158;28;45494;-71
2022/10/23 01:44:26;;;;;;;;;3.00;3.00;;;;;17.83;68.38;100503.50;5065876;28;46285;-70
2022/10/23 01:46:53;;;;;;;;;2.67;2.67;;;;;17.78;68.42;100490.38;5057367;28;45760;-71
2022/10/23 01:49:21;;;;;;;;;4.33;3.33;;;;;17.84;68.11;100491.13;5076500;28;45553;-70
2022/10/23 01:51:53;;;;;;;;;3.00;3.00;;;;;17.83;68.43;100498.19;5077462;28;45286;-68
2022/10/23 01:54:23;;;;;;;;;4.00;4.00;;;;;17.85;68.12;100500.81;5079718;27;46166;-69
2022/10/23 01:56:51;;;;;;;;;5.00;2.67;;;;;17.71;68.30;100487.97;5077369;28;45321;-69
2022/10/23 01:59:24;;;;;;;;;5.33;4.33;;;;;17.63;68.35;100469.69;5076187;27;45465;-68
2022/10/23 02:01:54;;;;;;;;;3.67;3.00;;;;;17.78;68.08;100493.00;5076466;27;45537;-71
2022/10/23 02:04:37;;;;;;;;;4.00;2.33;;;;;17.75;68.34;100500.22;5075865;28;45701;-72
2022/10/23 02:07:03;;;;;;;;;3.00;3.00;;;;;17.72;68.45;100485.25;5044614;28;45784;-71
2022/10/23 02:09:30;;;;;;;;;3.00;3.00;;;;;17.73;68.01;100473.75;5075900;28;45393;-69
2022/10/23 02:12:07;;;;;;;;;4.00;2.33;;;;;17.72;68.41;100468.50;5075544;27;45449;-68
2022/10/23 02:14:42;;;;;;;;;6.33;2.67;;;;;17.75;68.44;100463.97;5075471;27;46093;-68
2022/10/23 02:17:42;;;;;;;;;3.33;3.33;;;;;17.70;68.42;100462.38;5076217;28;45460;-67
2022/10/23 02:20:27;;;;;;;;;3.33;3.00;;;;;17.67;68.65;100466.00;5057646;28;45472;-70
2022/10/23 02:23:09;;;;;;;;;3.00;3.00;;;;;17.65;68.48;100465.16;5076045;27;45462;-71
2022/10/23 02:26:07;;;;;;;;;4.00;4.00;;;;;17.65;68.46;100461.66;5056563;28;45685;-71
2022/10/23 02:28:47;;;;;;;;;3.00;3.00;;;;;17.67;68.31;100450.09;5048806;27;45406;-70
2022/10/23 02:31:16;;;;;;;;;4.00;2.67;;;;;17.56;68.34;100423.97;5080085;28;45480;-71
2022/10/23 02:33:44;;;;;;;;;5.00;3.00;;;;;17.62;68.69;100441.44;5061724;28;45334;-68
2022/10/23 02:36:10;;;;;;;;;3.00;3.00;;;;;17.62;68.65;100433.50;5079811;28;46219;-70
2022/10/23 02:38:39;;;;;;;;;3.00;3.00;;;;;17.52;68.81;100418.81;5079430;27;45401;-70
2022/10/23 02:41:23;;;;;;;;;3.33;3.00;;;;;17.65;69.05;100436.03;5079212;28;45350;-68
2022/10/23 02:44:17;;;;;;;;;3.00;2.33;;;;;17.59;69.24;100428.31;5062048;27;45541;-68
2022/10/23 02:47:10;;;;;;;;;4.00;3.00;;;;;17.56;69.40;100421.31;5077829;28;46155;-70
2022/10/23 02:49:47;;;;;;;;;3.33;3.33;;;;;17.55;69.37;100419.56;5060354;27;45563;-71
2022/10/23 02:52:27;;;;;;;;;5.00;3.00;;;;;17.52;69.83;100421.47;5075441;28;45468;-70
2022/10/23 02:55:12;;;;;;;;;5.00;3.33;;;;;17.50;69.90;100412.72;5075456;28;45648;-70
2022/10/23 02:58:07;;;;;;;;;3.67;3.67;;;;;17.47;70.02;100413.66;5058852;28;45917;-70
2022/10/23 03:00:36;;;;;;;;;4.00;4.00;;;;;17.43;70.49;100400.56;5073151;28;45511;-70
2022/10/23 03:03:10;;;;;;;;;7.33;4.00;;;;;17.44;70.55;100400.53;5074889;28;45554;-69
2022/10/23 03:05:39;;;;;;;;;5.67;3.00;;;;;17.39;70.56;100391.84;5074839;28;45462;-71
2022/10/23 03:08:08;;;;;;;;;2.33;2.33;;;;;17.17;71.11;100354.63;5056587;28;47794;-71
2022/10/23 03:10:34;;;;;;;;;4.67;4.00;;;;;17.39;70.95;100391.84;5073038;27;45551;-71
2022/10/23 03:13:00;;;;;;;;;4.00;3.00;;;;;17.27;71.07;100366.63;5056166;28;45531;-71
2022/10/23 03:15:25;;;;;;;;;6.00;2.33;;;;;17.32;71.33;100383.25;5053988;28;45825;-69
2022/10/23 03:17:51;;;;;;;;;3.00;3.00;;;;;17.35;71.38;100387.59;5075169;28;45773;-70
2022/10/23 03:20:17;;;;;;;;;5.00;3.00;;;;;17.32;71.56;100385.00;5056206;28;45423;-69
2022/10/23 03:22:43;;;;;;;;;3.00;3.00;;;;;17.17;71.73;100365.19;5074702;27;45497;-70
2022/10/23 03:25:08;;;;;;;;;5.00;3.00;;;;;17.28;71.88;100383.41;5075430;28;45655;-68
2022/10/23 03:27:34;;;;;;;;;3.00;3.00;;;;;17.11;71.94;100338.94;5077070;28;46499;-69
2022/10/23 03:30:00;;;;;;;;;2.67;2.67;;;;;17.24;71.84;100366.75;5055797;28;45387;-69
2022/10/23 03:32:25;;;;;;;;;4.00;4.00;;;;;17.12;71.96;100324.78;5076728;28;45729;-70
2022/10/23 03:34:51;;;;;;;;;5.33;4.00;;;;;17.21;72.17;100339.53;5078895;27;45338;-71
2022/10/23 03:37:16;;;;;;;;;5.00;3.00;;;;;17.14;71.97;100342.34;5060581;28;45564;-71
2022/10/23 03:39:42;;;;;;;;;4.00;3.00;;;;;17.14;72.17;100349.44;5074394;27;45493;-70
2022/10/23 03:42:07;;;;;;;;;5.00;4.00;;;;;17.01;72.70;100333.03;5067403;28;45514;-71
2022/10/23 03:44:33;;;;;;;;;5.33;4.00;;;;;17.14;72.49;100354.72;5069115;27;45367;-69
2022/10/23 03:46:59;;;;;;;;;4.00;4.00;;;;;17.15;72.32;100352.00;5057886;28;45452;-72
2022/10/23 03:49:25;;;;;;;;;2.67;2.67;;;;;17.29;72.09;100369.25;5074103;28;45485;-68
2022/10/23 03:51:51;;;;;;;;;3.33;3.00;;;;;17.29;71.85;100354.22;5074279;27;45528;-71
2022/10/23 03:54:25;;;;;;;;;4.67;4.67;;;;;17.37;71.82;100346.91;5073954;28;45492;-71
2022/10/23 03:56:52;;;;;;;;;4.00;4.00;;;;;17.29;71.85;100334.84;5072748;28;46831;-69
2022/10/23 03:59:18;;;;;;;;;3.00;3.00;;;;;17.46;71.50;100345.72;5074049;27;45485;-70
2022/10/23 04:01:43;;;;;;;;;4.00;4.00;;;;;17.52;71.16;100353.50;5076729;28;45387;-70
2022/10/23 04:04:09;;;;;;;;;5.00;3.00;;;;;17.48;71.48;100356.28;5078037;28;45588;-71
2022/10/23 04:06:35;;;;;;;;;4.00;3.67;;;;;17.54;71.03;100367.53;5077326;28;46194;-71
2022/10/23 04:09:01;;;;;;;;;4.33;3.00;;;;;17.54;71.34;100359.59;5073325;28;45714;-71
2022/10/23 04:11:26;;;;;;;;;4.67;4.00;;;;;17.58;71.05;100363.00;5055773;28;45351;-71
2022/10/23 04:13:52;;;;;;;;;3.00;3.00;;;;;17.53;71.25;100360.50;5054545;28;45556;-70
2022/10/23 04:16:17;;;;;;;;;6.00;4.00;;;;;17.51;71.14;100361.47;5073547;28;46352;-70
2022/10/23 04:18:43;;;;;;;;;7.67;5.33;;;;;17.43;71.43;100350.28;5073806;28;45743;-71
2022/10/23 04:21:09;;;;;;;;;4.67;4.67;;;;;17.39;71.46;100341.56;5077171;28;45382;-71
2022/10/23 04:23:35;;;;;;;;;4.00;2.33;;;;;17.44;71.73;100358.19;5059086;28;45346;-71
2022/10/23 04:26:04;;;;;;;;;5.33;3.67;;;;;17.37;71.47;100349.56;5054832;28;46121;-70
2022/10/23 04:28:29;;;;;;;;;7.67;4.00;;;;;17.41;71.52;100365.34;5073546;27;45526;-71
2022/10/23 04:30:55;;;;;;;;;4.00;4.00;;;;;17.36;71.87;100366.34;5074055;28;45374;-70
2022/10/23 04:33:21;;;;;;;;;5.00;4.00;;;;;17.36;72.12;100350.47;5077497;28;45580;-71
2022/10/23 04:35:46;;;;;;;;;4.33;4.00;;;;;17.35;72.06;100364.63;5059439;27;46925;-72
2022/10/23 04:38:12;;;;;;;;;5.00;5.00;;;;;17.20;72.44;100338.63;5059865;28;45441;-72
2022/10/23 04:40:37;;;;;;;;;5.00;5.00;;;;;17.27;72.50;100344.59;5078325;28;45501;-71
2022/10/23 04:43:03;;;;;;;;;4.67;4.33;;;;;17.21;72.68;100329.78;5061202;28;45394;-71
2022/10/23 04:45:29;;;;;;;;;5.00;5.00;;;;;17.13;73.03;100315.91;5073284;28;46209;-71
2022/10/23 04:47:55;;;;;;;;;10.00;6.33;;;;;17.14;73.29;100322.97;5077098;28;45520;-70
2022/10/23 04:50:21;;;;;;;;;5.67;4.00;;;;;17.10;73.78;100346.00;5077308;27;45396;-71
2022/10/23 04:52:47;;;;;;;;;9.33;5.67;;;;;17.08;73.94;100354.91;5055243;28;45721;-71
2022/10/23 04:55:13;;;;;;;;;6.00;4.33;;;;;17.04;73.76;100362.06;5072849;28;45448;-69
2022/10/23 04:57:39;;;;;;;;;5.67;4.33;;;;;17.10;73.74;100375.09;5073618;28;45284;-69
2022/10/23 05:00:07;;;;;;;;;10.33;4.00;;;;;17.07;73.74;100364.63;5071755;28;45614;-71
2022/10/23 05:02:33;;;;;;;;;4.00;3.67;;;;;17.18;73.70;100369.59;5073855;28;45529;-69
2022/10/23 05:04:59;;;;;;;;;4.00;4.00;;;;;17.22;73.00;100355.34;5073381;27;46658;-69
2022/10/23 05:07:24;;;;;;;;;4.00;4.00;;;;;17.28;73.39;100363.09;5073553;28;45775;-68
2022/10/23 05:09:50;;;;;;;;;6.33;5.33;;;;;17.27;73.22;100347.25;5056769;28;45510;-69
2022/10/23 05:12:17;;;;;;;;;7.00;4.67;;;;;17.28;73.12;100333.13;5077830;27;45394;-69
2022/10/23 05:14:42;;;;;;;;;6.00;5.00;;;;;17.32;73.31;100330.31;5077452;28;46151;-69
2022/10/23 05:17:14;;;;;;;;;5.00;4.67;;;;;17.08;73.57;100291.41;5077379;28;45501;-71
2022/10/23 05:19:49;;;;;;;;;6.00;4.00;;;;;17.25;73.30;100312.00;5077183;27;45822;-72
2022/10/23 05:22:16;;;;;;;;;6.00;5.67;;;;;17.29;73.48;100329.53;5075711;28;45461;-68
2022/10/23 05:24:42;;;;;;;;;5.33;4.33;;;;;17.15;73.56;100311.44;5079013;27;45552;-69
2022/10/23 05:27:08;;;;;;;;;5.67;5.00;;;;;17.21;73.93;100311.25;5078023;27;45359;-70
2022/10/23 05:29:33;;;;;;;;;4.00;2.00;;;;;17.15;74.41;100299.06;5076624;27;45498;-68
2022/10/23 05:32:04;;;;;;;;;5.00;4.00;;;;;17.08;74.24;100284.31;5080939;28;45341;-69
2022/10/23 05:34:34;;;;;;;;;4.67;4.67;;;;;17.05;74.54;100268.56;5079040;28;46523;-71
2022/10/23 05:37:01;;;;;;;;;7.33;5.00;;;;;17.14;74.28;100277.97;5076712;28;45337;-68
2022/10/23 05:39:27;;;;;;;;;5.00;4.00;;;;;17.16;74.30;100273.50;5076603;28;45335;-71
2022/10/23 05:41:53;;;;;;;;;9.00;5.00;;;;;17.14;74.42;100262.97;5058416;28;45571;-70
2022/10/23 05:44:19;;;;;;;;;6.33;4.00;;;;;17.16;74.38;100277.00;5080241;28;46507;-70
2022/10/23 05:46:45;;;;;;;;;5.00;5.00;;;;;17.15;74.64;100282.34;5061164;28;45499;-69
2022/10/23 05:49:11;;;;;;;;;6.00;4.33;;;;;17.17;74.61;100270.78;5076590;28;45620;-69
2022/10/23 05:51:40;;;;;;;;;3.67;3.33;;;;;17.09;74.26;100246.38;5075905;28;45446;-70
2022/10/23 05:54:07;;;;;;;;;4.00;4.00;;;;;17.21;74.06;100266.28;5075791;28;45381;-69
2022/10/23 05:56:37;;;;;;;;;5.00;5.00;;;;;17.25;74.16;100278.50;5075857;28;45511;-71
2022/10/23 05:59:04;;;;;;;;;4.67;4.67;;;;;17.14;74.33;100248.88;5075521;27;45546;-69
2022/10/23 06:01:29;;;;;;;;;10.33;7.67;;;;;17.14;73.74;100264.75;5076145;27;45401;-69
2022/10/23 06:03:55;;;;;;;;;4.67;4.33;;;;;17.18;74.23;100287.56;5076063;27;46017;-69
2022/10/23 06:06:20;;;;;;;;;7.00;5.67;;;;;17.19;74.51;100293.72;5077827;27;45179;-69
2022/10/23 06:08:46;;;;;;;;;6.33;5.33;;;;;17.18;74.02;100284.91;5077248;28;45563;-69
2022/10/23 06:11:14;;;;;;;;;10.33;7.00;;;;;17.10;74.62;100263.09;5076341;28;45791;-71
2022/10/23 06:13:44;;;;;;;;;5.67;5.00;;;;;17.08;75.09;100268.44;5075964;28;45762;-71
2022/10/23 06:16:15;;;;;;;;;3.67;3.67;;;;;17.08;75.01;100273.72;5076284;28;45414;-70
2022/10/23 06:18:42;;;;;;;;;6.00;6.00;;;;;17.02;74.75;100250.13;5076202;27;45468;-70
2022/10/23 06:21:08;;;;;;;;;5.67;5.00;;;;;17.06;75.15;100272.06;5075937;28;45483;-70
2022/10/23 06:23:36;;;;;;;;;7.00;7.00;;;;;17.13;75.04;100273.59;5075239;28;45595;-68
2022/10/23 06:26:03;;;;;;;;;6.33;6.00;;;;;17.13;75.10;100273.59;5056150;28;45504;-69
2022/10/23 06:28:28;;;;;;;;;5.33;4.67;;;;;16.99;74.89;100250.25;5059520;28;45513;-71
2022/10/23 06:30:54;;;;;;;;;6.67;6.00;;;;;17.19;75.01;100265.47;5059707;28;45528;-73
2022/10/23 06:33:19;;;;;;;;;6.33;5.00;;;;;17.21;74.83;100262.78;5059166;28;45422;-69
2022/10/23 06:35:45;;;;;;;;;8.00;5.33;;;;;17.19;74.67;100251.38;5056878;28;45526;-69
2022/10/23 06:38:11;;;;;;;;;7.00;5.33;;;;;17.20;74.74;100261.88;5057036;28;45824;-69
2022/10/23 06:40:40;;;;;;;;;7.67;5.00;;;;;17.21;74.71;100250.41;5056733;28;45633;-73
2022/10/23 06:43:07;;;;;;;;;5.00;5.00;;;;;17.18;74.73;100242.56;5056153;27;45540;-71
2022/10/23 06:45:33;;;;;;;;;6.00;6.00;;;;;17.12;74.50;100234.81;5074105;28;46402;-71
2022/10/23 06:48:00;;;;;;;;;6.67;5.67;;;;;17.19;74.60;100251.38;5070812;28;45443;-69
2022/10/23 06:50:30;;;;;;;;;7.00;7.00;;;;;17.16;74.88;100253.19;5078574;28;45546;-70
2022/10/23 06:52:56;;;;;;;;;6.00;5.33;;;;;17.15;74.95;100250.59;5054361;28;46422;-67
2022/10/23 06:55:22;;;;;;;;;5.67;5.67;;;;;17.03;74.70;100227.19;5074981;27;45395;-68
2022/10/23 06:57:47;;;;;;;;;7.33;6.33;;;;;17.13;74.72;100245.38;5057402;28;45410;-68
2022/10/23 07:00:13;;;;;;;;;10.67;8.67;;;;;17.07;74.76;100234.97;5057270;28;45493;-69
2022/10/23 07:02:38;;;;;;;;;8.33;6.00;;;;;17.02;74.84;100231.63;5056138;28;47609;-70
2022/10/23 07:05:04;;;;;;;;;7.00;6.67;;;;;17.10;75.37;100229.56;5074617;28;45446;-68
2022/10/23 07:07:30;;;;;;;;;7.00;5.67;;;;;16.88;75.12;100197.66;5059467;28;45493;-69
2022/10/23 07:09:56;;;;;;;;;6.00;6.00;;;;;17.03;75.31;100235.13;5068863;28;45455;-69
2022/10/23 07:12:21;;;;;;;;;9.50;8.00;;;;;16.88;75.08;100199.47;5066222;28;47097;-68
2022/10/23 07:14:47;;;;;;;;;7.00;6.00;;;;;17.04;75.14;100216.56;5073888;28;45387;-69
2022/10/23 07:17:17;;;;;;;;;7.33;6.00;;;;;17.04;75.27;100210.41;5074418;28;45481;-70
2022/10/23 07:19:50;;;;;;;;;5.67;5.67;;;;;17.07;75.38;100229.69;5066600;28;46142;-70
2022/10/23 07:22:16;;;;;;;;;6.33;6.00;;;;;17.13;74.75;100228.59;5069938;27;45680;-70
2022/10/23 07:24:42;;;;;;;;;7.00;5.33;;;;;17.21;74.69;100236.31;5067600;28;45481;-70
2022/10/23 07:27:07;;;;;;;;;8.33;5.67;;;;;17.17;74.54;100230.25;5054395;28;45594;-69
2022/10/23 07:29:33;;;;;;;;;7.67;5.33;;;;;17.07;74.71;100211.16;5054771;28;45480;-70
2022/10/23 07:32:00;;;;;;;;;10.67;9.33;;;;;17.14;74.41;100222.41;5062708;28;46968;-69
2022/10/23 07:34:27;;;;;;;;;10.00;5.67;;;;;17.22;74.57;100233.59;5068572;28;45479;-68
2022/10/23 07:36:53;;;;;;;;;6.00;4.67;;;;;17.24;74.46;100234.41;5059830;27;45395;-69
2022/10/23 07:39:21;;;;;;;;;7.33;7.33;;;;;17.30;74.16;100236.88;5072944;27;45388;-69
2022/10/23 07:41:47;;;;;;;;;8.33;8.33;;;;;17.19;74.35;100212.53;5069604;28;45323;-69
2022/10/23 07:44:16;;;;;;;;;10.67;9.67;;;;;17.26;74.28;100224.63;5077216;28;45493;-70
2022/10/23 07:46:42;;;;;;;;;8.00;6.67;;;;;17.28;74.27;100224.59;5069716;28;45367;-69
2022/10/23 07:49:10;;;;;;;;;7.67;7.00;;;;;17.27;74.28;100222.84;5072759;28;45523;-69
2022/10/23 07:51:35;;;;;;;;;9.33;6.00;;;;;17.25;74.05;100217.63;5072719;27;46130;-68
2022/10/23 07:54:04;;;;;;;;;13.33;8.67;;;;;17.27;74.12;100213.13;5065986;28;45444;-71
2022/10/23 07:56:30;;;;;;;;;8.00;6.00;;;;;17.30;73.76;100220.97;5051359;28;46161;-70
2022/10/23 07:58:57;;;;;;;;;8.00;6.67;;;;;17.43;73.82;100218.75;5068104;28;45501;-70
2022/10/23 08:01:33;;;;;;;;;12.67;8.00;;;;;17.50;73.33;100212.34;5060156;28;45420;-68
2022/10/23 08:04:00;;;;;;;;;9.00;7.67;;;;;17.58;72.84;100220.91;5058756;28;45540;-69
2022/10/23 08:06:29;;;;;;;;;11.33;7.33;;;;;17.73;72.56;100224.78;5063841;27;45407;-70
2022/10/23 08:08:55;;;;;;;;;8.00;8.00;;;;;17.59;72.47;100192.63;5059667;27;45718;-67
2022/10/23 08:11:29;;;;;;;;;14.33;9.33;;;;;17.78;71.94;100221.97;5070530;28;45429;-69
2022/10/23 08:13:57;;;;;;;;;9.67;6.33;;;;;17.75;72.10;100206.19;5060196;28;45439;-70
2022/10/23 08:16:24;;;;;;;;;12.67;9.67;;;;;17.84;71.51;100205.88;5060980;28;45404;-68
2022/10/23 08:18:51;;;;;;;;;10.67;8.67;;;;;17.98;71.46;100218.63;5058942;28;45793;-69
2022/10/23 08:21:17;;;;;;;;;7.67;7.67;;;;;17.95;71.02;100193.09;5041074;28;46981;-70
2022/10/23 08:23:43;;;;;;;;;7.33;7.33;;;;;18.11;70.88;100211.94;5060127;28;45383;-69
2022/10/23 08:26:09;;;;;;;;;5.33;5.33;;;;;18.14;70.90;100214.47;5053729;28;45485;-68
2022/10/23 08:28:35;;;;;;;;;9.00;6.33;;;;;18.16;70.45;100199.38;5054700;28;45847;-69
2022/10/23 08:31:18;;;;;;;;;8.33;7.33;;;;;18.23;70.10;100177.03;5053309;28;46281;-69
2022/10/23 08:33:44;;;;;;;;;14.00;9.67;;;;;18.35;69.92;100194.25;5053220;28;45419;-69
2022/10/23 08:36:26;;;;;;;;;7.33;6.67;;;;;18.36;69.42;100174.75;5053370;28;45488;-69
2022/10/23 08:38:54;;;;;;;;;7.00;7.00;;;;;18.57;69.11;100183.66;5056738;28;45462;-69
2022/10/23 08:41:33;;;;;;;;;8.33;6.67;;;;;18.85;68.27;100182.56;5048800;28;47004;-69
2022/10/23 08:44:04;;;;;;;;;6.00;6.00;;;;;18.90;68.36;100185.91;5061589;28;45364;-69
2022/10/23 08:46:36;;;;;;;;;9.67;9.33;;;;;18.99;67.39;100190.81;5073960;27;45393;-71
2022/10/23 08:49:34;;;;;;;;;8.33;7.67;;;;;19.00;67.50;100192.53;5058044;28;45264;-69
2022/10/23 08:52:06;;;;;;;;;10.00;6.67;;;;;19.03;66.81;100203.06;5055343;28;47032;-71
2022/10/23 08:55:08;;;;;;;;;10.00;7.00;;;;;19.02;66.90;100193.34;5075844;28;45470;-70
2022/10/23 08:57:42;;;;;;;;;8.33;6.33;;;;;19.15;66.88;100196.38;5056076;28;45522;-70
2022/10/23 09:00:13;;;;;;;;;6.33;6.00;;;;;19.42;66.11;100201.44;5066869;28;45522;-70
2022/10/23 09:02:43;;;;;;;;;10.33;7.00;;;;;19.58;65.30;100191.00;5072899;28;46129;-69
2022/10/23 09:05:16;;;;;;;;;7.33;6.33;;;;;19.72;64.91;100185.97;5072934;28;45443;-70
2022/10/23 09:07:49;;;;;;;;;8.67;8.00;;;;;19.78;64.28;100179.50;5075241;28;45382;-70
2022/10/23 09:10:40;;;;;;;;;8.67;8.67;;;;;19.87;63.92;100187.94;5077886;28;45401;-68
2022/10/23 09:13:34;;;;;;;;;8.67;6.33;;;;;20.23;63.40;100184.50;5072561;28;45453;-71
2022/10/23 09:16:30;;;;;;;;;6.67;6.67;;;;;21.56;60.39;100185.09;5056787;28;45501;-70
2022/10/23 09:18:56;;;;;;;;;10.67;9.00;;;;;23.03;55.29;100169.91;5072871;28;45846;-68
2022/10/23 09:21:29;;;;;;;;;9.33;8.67;;;;;23.32;53.05;100153.97;5073536;28;45551;-70
2022/10/23 09:23:55;;;;;;;;;9.00;8.00;;;;;23.81;53.07;100164.38;5072877;28;46192;-71
2022/10/23 09:26:21;;;;;;;;;8.00;8.00;;;;;23.39;52.77;100155.31;5073619;28;45470;-70
2022/10/23 09:28:55;;;;;;;;;6.00;6.00;;;;;24.20;50.69;100168.16;5056429;28;45540;-70
2022/10/23 09:31:20;;;;;;;;;10.67;7.00;;;;;24.80;49.65;100157.13;5061937;28;45443;-70
2022/10/23 09:34:00;;;;;;;;;6.67;6.00;;;;;25.37;48.57;100147.97;5063930;28;45582;-68
2022/10/23 09:36:28;;;;;;;;;5.50;5.50;;;;;25.91;47.15;100160.31;5052452;28;45476;-70
2022/10/23 09:38:58;;;;;;;;;8.00;6.50;;;;;25.79;45.17;100141.41;5057012;28;45395;-71
2022/10/23 09:41:37;;;;;;;;;6.50;6.00;;;;;25.70;46.46;100160.84;5056940;28;45347;-69
2022/10/23 09:44:19;;;;;;;;;5.50;5.25;;;;;25.19;47.67;100152.75;5060775;28;45394;-72
2022/10/23 09:46:48;;;;;;;;;8.00;6.50;;;;;24.89;48.29;100148.50;5071932;28;45448;-70
2022/10/23 09:49:23;;;;;;;;;7.75;6.00;;;;;25.38;47.37;100147.84;5074317;27;45519;-72
2022/10/23 09:52:07;;;;;;;;;4.75;4.00;;;;;26.45;45.54;100141.16;5058527;28;45524;-70
2022/10/23 09:54:38;;;;;;;;;5.25;5.25;;;;;27.34;43.57;100126.44;5053928;27;45688;-70
2022/10/23 09:57:35;;;;;;;;;7.50;6.00;;;;;28.36;41.29;100134.50;5052205;28;45451;-70
2022/10/23 10:00:14;;;;;;;;;4.00;4.00;;;;;28.48;41.14;100138.94;5069213;27;45422;-69
2022/10/23 10:02:43;;;;;;;;;4.50;4.50;;;;;28.24;40.32;100131.00;5073583;28;45458;-69
2022/10/23 10:05:23;;;;;;;;;6.50;6.25;;;;;28.13;40.77;100126.47;5076016;28;46202;-69
2022/10/23 10:08:02;;;;;;;;;5.00;5.00;;;;;28.95;38.83;100118.78;5075624;28;45374;-67
2022/10/23 10:10:41;;;;;;;;;6.25;5.75;;;;;29.00;38.84;100120.22;5076435;27;45730;-67
2022/10/23 10:13:32;;;;;;;;;10.00;7.50;;;;;28.13;39.99;100121.09;5079568;28;45425;-68
2022/10/23 10:16:24;;;;;;;;;8.25;6.25;;;;;27.68;41.16;100129.16;5078305;28;46371;-66
2022/10/23 10:19:01;;;;;;;;;7.40;5.00;;;;;27.54;41.01;100118.63;5057810;28;45384;-69
2022/10/23 10:21:35;;;;;;;;;6.00;5.00;;;;;27.77;41.05;100125.75;5064034;27;45517;-68
2022/10/23 10:24:28;;;;;;;;;6.00;6.00;;;;;27.57;40.98;100130.00;5071419;28;45426;-69
2022/10/23 10:27:48;;;;;;;;;8.25;5.25;;;;;27.00;42.47;100123.66;5072215;28;45438;-68
2022/10/23 10:30:16;;;;;;;;;7.60;5.80;;;;;25.91;43.89;100110.22;4978663;28;45607;-68
2022/10/23 10:32:50;;;;;;;;;5.75;3.25;;;;;25.17;45.57;100119.81;5055599;28;45630;-69
2022/10/23 10:35:48;;;;;;;;;5.50;5.50;;;;;24.46;47.26;100118.28;5059275;28;45487;-69
2022/10/23 10:38:28;;;;;;;;;4.25;4.00;;;;;24.40;47.31;100119.56;5021104;28;48107;-69
2022/10/23 10:41:36;;;;;;;;;7.75;5.00;;;;;24.90;46.79;100101.97;5072458;28;45534;-69
2022/10/23 10:44:36;;;;;;;;;5.75;5.00;;;;;25.71;45.55;100116.09;5070763;28;45544;-70
2022/10/23 10:47:10;;;;;;;;;10.50;9.50;;;;;25.02;46.08;100104.78;5070452;28;45324;-69
2022/10/23 10:49:51;;;;;;;;;6.00;5.25;;;;;25.91;44.79;100095.91;5074578;28;45528;-68
2022/10/23 10:52:32;;;;;;;;;5.00;5.00;;;;;26.57;43.33;100088.41;5072511;28;45507;-67
2022/10/23 10:55:27;;;;;;;;;6.25;6.00;;;;;28.34;40.78;100086.19;5075816;28;45330;-68
2022/10/23 10:58:14;;;;;;;;;6.50;5.25;;;;;29.36;37.07;100068.53;5066858;28;45516;-68
2022/10/23 11:00:41;;;;;;;;;4.75;4.75;;;;;30.25;36.39;100084.06;5037400;28;45485;-68
2022/10/23 11:03:26;;;;;;;;;5.80;4.00;;;;;31.27;34.54;100076.41;5071301;28;45526;-69
2022/10/23 11:05:56;;;;;;;;;5.60;4.00;;;;;32.24;32.77;100071.59;5071678;28;45412;-66
2022/10/23 11:08:35;;;;;;;;;6.00;4.25;;;;;31.75;33.67;100058.31;5069788;28;46072;-69
2022/10/23 11:11:20;;;;;;;;;5.00;4.00;;;;;30.27;35.80;100068.63;5068900;28;45582;-68
2022/10/23 11:13:46;;;;;;;;;5.80;4.60;;;;;29.67;36.93;100076.66;5065065;28;45914;-68
2022/10/23 11:16:32;;;;;;;;;7.40;4.80;;;;;30.23;35.40;100069.84;5064449;28;45719;-69
2022/10/23 11:19:02;;;;;;;;;4.80;4.20;;;;;29.83;36.32;100067.19;5066620;28;45399;-69
2022/10/23 11:21:41;;;;;;;;;6.40;5.00;;;;;29.77;36.24;100060.50;5057596;28;45407;-69
2022/10/23 11:24:31;;;;;;;;;8.40;6.00;;;;;29.88;36.20;100051.47;5051337;28;45840;-69
2022/10/23 11:27:20;;;;;;;;;4.40;4.40;;;;;28.18;39.50;100031.88;5062535;28;46504;-70
2022/10/23 11:30:15;;;;;;;;;3.75;2.25;;;;;27.63;40.19;100043.44;5070422;27;45503;-69
2022/10/23 11:32:53;;;;;;;;;4.80;4.80;;;;;27.78;40.70;100040.50;5043365;28;46730;-67
2022/10/23 11:35:21;;;;;;;;;7.80;5.00;;;;;28.19;39.74;100034.44;5064917;28;45417;-67
2022/10/23 11:37:59;;;;;;;;;5.40;5.40;;;;;28.64;39.47;100053.16;5062100;28;45341;-67
2022/10/23 11:40:25;;;;;;;;;8.00;6.00;;;;;30.18;37.03;100027.09;5069620;28;45529;-67
2022/10/23 11:42:53;;;;;;;;;6.00;3.75;;;;;30.94;35.17;100041.75;5084508;28;45896;-70
2022/10/23 11:45:34;;;;;;;;;5.80;3.20;;;;;30.17;36.14;100033.47;5076624;28;45485;-68